Aérodrome :
LOGIN :

S'inscrire | Disclaimer

   EN    FR    IT 

 










Légende :    VFR   VFR Marginal   IFR   IFR Intensif   IFR Très Intensif
Visi : 
Plafond : 
>= 8 km
>= 3000ft
5 à 8 km
1000 à 3000 ft
1500m à 5 km
500 à 1000 ft
800 à 1500m
200 à 500 ft
< 800m
< 200 ft
Symboles :   Orages  Brouillard  Fortes neiges  Fortes précipitations  Vent > 20 kt
SIGMETs :   Divers  Orages  Givrage  Turbulence  Onde Orograph.  Cendres Volcan.







- Altitude de l'aérodrome : 306 ft
- Code IATA : EMA
- Voir les cartes d'approche


EGNX - Nottingham East Midlands

DERNIER METAR :
  • 210350Z VRB03KT 7000 OVC027 02/02 Q1024

METARs EXPIRÉS :
  • 210320Z 26004KT 7000 OVC025 02/02 Q1024
  • 210250Z 28003KT 5000 BR OVC025 02/02 Q1024
  • 210220Z 32003KT 6000 OVC026 02/02 Q1024
  • 210150Z 23003KT 7000 BKN026 02/02 Q1024
  • 210120Z 27004KT 6000 OVC026 02/02 Q1024

TAF TAF EGNX
Valide du 21 à 00h jusqu'au 22 à 00h UTC


202301Z 2100/2124 28004KT 6000 SCT030
TEMPO 2100/2112 2000 BR
PROB40 2100/2111 0300 FG BKN001
PROB30
TEMPO 2111/2115 BKN004
BECMG 2112/2115 20012KT 9999
TEMPO 2121/2124 6000 RA BKN012
ATIS : +44 1332 852 852 (ext 3201)
Pas de NOTAMs connus pour ce terrain.



MET'MAP, la Météo Aéronautique d'un coup d'oeil ! - Copyright ORBIFLY Décembre 2007 - Disclaimer

ORBIFLY MET'MAP TEAM :

Programmation & Développement : Alexandra Zaïnal
Conception & Développement : Baudouin d'Aumeries
Co-Programmation & Développement : Marc-Olivier Méhu
Soutien technique & logistique : Manuel Goepfert

Contact : metmap@orbifly.com




SOURCES & CREDITS :

   NOAA